Pawnee, Louisiana
Current Conditions -  °F | °C
As of 8:15 AM on Saturday 20 Dec 2014 (Local Time) from KACP Reporting Station
Overcast Overcast  
Wind Chill: 44°   Ceiling: 600
Heat Index: 48°   Visibility: 10mi
Dew Point: 46°   Wind: 8mph
Humidity: 92%   Direction: 20°NNE
Pressure: 30.19"   Gusts: NA
Location:  30.9922°N, 92.6266°W
Report Text: KACP 201415Z AUTO 02007KT 10SM OVC006 09/08 A3019 RMK AO2 T00890076
Loading
Personal Weather Stations






























Interactive Weather Map New forecast layout! Learn more

10-Day Weather Forecast

Advertisements
Track Severe Weather on mobile